createdAt,value
2019-02-09T00:00:12.295Z,0.00
2019-02-09T00:02:05.754Z,0.00
2019-02-09T00:03:05.775Z,0.00
2019-02-09T00:04:59.215Z,0.00
2019-02-09T00:05:59.246Z,0.00
2019-02-09T00:07:52.695Z,0.00
2019-02-09T00:08:52.717Z,0.00
2019-02-09T00:10:46.158Z,0.00
2019-02-09T00:11:46.186Z,0.00
2019-02-09T00:13:39.641Z,0.00
2019-02-09T00:14:39.665Z,0.00
2019-02-09T00:16:33.144Z,0.00
2019-02-09T00:17:33.147Z,0.00
2019-02-09T00:19:26.589Z,0.00
2019-02-09T00:20:26.615Z,0.00
2019-02-09T00:22:20.068Z,0.00
2019-02-09T00:23:20.086Z,0.00
2019-02-09T00:25:13.529Z,0.00
2019-02-09T00:26:13.558Z,0.00
2019-02-09T00:28:07.013Z,0.00
2019-02-09T00:29:07.035Z,0.00
2019-02-09T00:31:00.476Z,0.00
2019-02-09T00:32:00.506Z,0.00
2019-02-09T00:33:53.967Z,0.00
2019-02-09T00:34:53.986Z,0.00
2019-02-09T00:36:47.432Z,0.00
2019-02-09T00:37:47.461Z,0.00
2019-02-09T00:39:40.923Z,0.00
2019-02-09T00:40:40.941Z,0.00
2019-02-09T00:42:34.401Z,0.00
2019-02-09T00:43:34.422Z,0.00
2019-02-09T00:45:27.878Z,0.00
2019-02-09T00:46:27.907Z,0.00
2019-02-09T00:48:21.371Z,0.00
2019-02-09T00:49:21.391Z,0.00
2019-02-09T00:51:14.831Z,0.00
2019-02-09T00:52:14.853Z,0.00
2019-02-09T00:54:08.303Z,0.00
2019-02-09T00:55:08.322Z,0.00
2019-02-09T00:57:01.770Z,0.00
2019-02-09T00:58:01.801Z,0.00
2019-02-09T00:59:55.271Z,0.00
2019-02-09T01:00:55.282Z,0.00
2019-02-09T01:02:48.730Z,0.00
2019-02-09T01:03:48.747Z,0.00
2019-02-09T01:05:42.205Z,0.00
2019-02-09T01:06:42.233Z,0.00
2019-02-09T01:08:35.694Z,0.00
2019-02-09T01:09:35.747Z,0.00
2019-02-09T01:11:29.163Z,0.00
2019-02-09T01:12:29.188Z,0.00
2019-02-09T01:14:22.644Z,0.00
2019-02-09T01:15:22.660Z,0.00
2019-02-09T01:17:16.107Z,0.00
2019-02-09T01:18:16.132Z,0.00
2019-02-09T01:20:09.597Z,0.00
2019-02-09T01:21:09.615Z,0.00
2019-02-09T01:23:03.076Z,0.00
2019-02-09T01:24:03.082Z,0.00
2019-02-09T01:25:56.539Z,0.00
2019-02-09T01:26:56.565Z,0.00
2019-02-09T01:28:50.023Z,0.00
2019-02-09T01:29:50.042Z,0.00
2019-02-09T01:31:43.495Z,0.00
2019-02-09T01:32:43.516Z,0.00
2019-02-09T01:34:36.973Z,0.00
2019-02-09T01:35:36.993Z,0.00
2019-02-09T01:37:30.449Z,0.00
2019-02-09T01:38:30.475Z,0.00
2019-02-09T01:40:23.926Z,0.00
2019-02-09T01:41:23.947Z,0.00
2019-02-09T01:43:17.394Z,0.00
2019-02-09T01:44:17.416Z,0.00
2019-02-09T01:46:10.866Z,0.00
2019-02-09T01:47:10.894Z,0.00
2019-02-09T01:49:04.356Z,0.00
2019-02-09T01:50:04.375Z,0.00
2019-02-09T01:51:57.808Z,0.00
2019-02-09T01:52:57.840Z,0.00
2019-02-09T01:54:51.293Z,0.00
2019-02-09T01:55:51.312Z,0.00
2019-02-09T01:57:44.753Z,0.00
2019-02-09T01:58:44.780Z,0.00
2019-02-09T02:00:38.237Z,0.00
2019-02-09T02:01:38.264Z,0.00
2019-02-09T02:03:31.703Z,0.00
2019-02-09T02:04:31.725Z,0.00
2019-02-09T02:06:25.187Z,0.00
2019-02-09T02:07:25.210Z,0.00
2019-02-09T02:09:18.653Z,0.00
2019-02-09T02:10:18.677Z,0.00
2019-02-09T02:12:12.128Z,0.00
2019-02-09T02:13:12.155Z,0.00
2019-02-09T02:15:05.616Z,0.00
2019-02-09T02:16:05.637Z,0.00
2019-02-09T02:17:59.088Z,0.00
2019-02-09T02:18:59.111Z,0.00
2019-02-09T02:20:52.577Z,0.00
2019-02-09T02:21:52.601Z,0.00
2019-02-09T02:23:46.048Z,0.00
2019-02-09T02:24:46.071Z,0.00
2019-02-09T02:26:39.510Z,0.00
2019-02-09T02:27:39.539Z,0.00
2019-02-09T02:29:32.995Z,0.00
2019-02-09T02:30:33.023Z,0.00
2019-02-09T02:32:26.487Z,0.00
2019-02-09T02:33:26.523Z,0.00
2019-02-09T02:35:19.961Z,0.00
2019-02-09T02:36:19.981Z,0.00
2019-02-09T02:38:13.420Z,0.00
2019-02-09T02:39:13.448Z,0.00
2019-02-09T02:41:06.903Z,0.00
2019-02-09T02:42:06.924Z,0.00
2019-02-09T02:44:00.382Z,0.00
2019-02-09T02:45:00.462Z,0.00
2019-02-09T02:46:53.855Z,0.00
2019-02-09T02:47:53.880Z,0.00
2019-02-09T02:49:47.327Z,0.00
2019-02-09T02:50:47.346Z,0.00
2019-02-09T02:52:40.825Z,0.00
2019-02-09T02:53:40.825Z,0.00
2019-02-09T02:55:34.296Z,0.00
2019-02-09T02:56:34.305Z,0.00
2019-02-09T02:58:27.754Z,0.00
2019-02-09T02:59:27.787Z,0.00
2019-02-09T03:01:21.231Z,0.00
2019-02-09T03:02:21.252Z,0.00
2019-02-09T03:04:14.705Z,0.00
2019-02-09T03:05:14.718Z,0.00
2019-02-09T03:07:08.170Z,0.00
2019-02-09T03:08:08.208Z,0.00
2019-02-09T03:10:01.660Z,0.00
2019-02-09T03:11:01.675Z,0.00
2019-02-09T03:12:55.155Z,0.00
2019-02-09T03:13:55.159Z,0.00
2019-02-09T03:15:48.616Z,0.00
2019-02-09T03:16:48.637Z,0.00
2019-02-09T03:18:42.088Z,0.00
2019-02-09T03:19:42.113Z,0.00
2019-02-09T03:21:35.557Z,0.00
2019-02-09T03:22:35.579Z,0.00
2019-02-09T03:24:29.026Z,0.00
2019-02-09T03:25:29.042Z,0.00
2019-02-09T03:27:22.498Z,0.00
2019-02-09T03:28:22.522Z,0.00
2019-02-09T03:30:15.967Z,0.00
2019-02-09T03:31:15.990Z,0.00
2019-02-09T03:33:09.430Z,0.00
2019-02-09T03:34:09.456Z,0.00
2019-02-09T03:36:02.928Z,0.00
2019-02-09T03:37:02.942Z,0.00
2019-02-09T03:38:56.384Z,0.00
2019-02-09T03:39:56.404Z,0.00
2019-02-09T03:41:49.848Z,0.00
2019-02-09T03:42:49.874Z,0.00
2019-02-09T03:44:43.322Z,0.00
2019-02-09T03:45:43.343Z,0.00
2019-02-09T03:47:36.787Z,0.00
2019-02-09T03:48:36.814Z,0.00
2019-02-09T03:50:30.278Z,0.00
2019-02-09T03:51:30.280Z,0.00
2019-02-09T03:53:23.727Z,0.00
2019-02-09T03:54:23.753Z,0.00
2019-02-09T03:56:17.200Z,0.00
2019-02-09T03:57:17.224Z,0.00
2019-02-09T03:59:10.657Z,0.00
2019-02-09T04:00:10.690Z,0.00
2019-02-09T04:02:04.151Z,0.00
2019-02-09T04:03:04.169Z,0.00
2019-02-09T04:04:57.640Z,0.00
2019-02-09T04:05:57.657Z,0.00
2019-02-09T04:07:51.117Z,0.00
2019-02-09T04:08:51.142Z,0.00
2019-02-09T04:10:44.593Z,0.00
2019-02-09T04:11:44.615Z,0.00
2019-02-09T04:13:38.061Z,0.00
2019-02-09T04:14:38.090Z,0.00
2019-02-09T04:16:31.546Z,0.00
2019-02-09T04:17:31.567Z,0.00
2019-02-09T04:19:25.019Z,0.00
2019-02-09T04:20:25.042Z,0.00
2019-02-09T04:22:18.500Z,0.00
2019-02-09T04:23:18.525Z,0.00
2019-02-09T04:25:11.976Z,0.00
2019-02-09T04:26:11.997Z,0.00
2019-02-09T04:28:05.436Z,0.00
2019-02-09T04:29:05.464Z,0.00
2019-02-09T04:31:06.261Z,0.00
2019-02-09T04:31:58.936Z,0.00
2019-02-09T04:33:52.468Z,0.00
2019-02-09T04:34:52.412Z,0.00
2019-02-09T04:36:45.864Z,0.00
2019-02-09T04:37:45.884Z,0.00
2019-02-09T04:39:39.354Z,0.00
2019-02-09T04:40:39.361Z,0.00
2019-02-09T04:42:32.811Z,0.00
2019-02-09T04:43:32.837Z,0.00
2019-02-09T04:45:26.304Z,0.00
2019-02-09T04:46:26.325Z,0.00
2019-02-09T04:48:19.761Z,0.00
2019-02-09T04:49:19.789Z,0.00
2019-02-09T04:51:13.243Z,0.00
2019-02-09T04:52:13.268Z,0.00
2019-02-09T04:54:06.705Z,0.00
2019-02-09T04:55:06.734Z,0.00
2019-02-09T04:57:00.183Z,0.00
2019-02-09T04:58:00.203Z,0.00
2019-02-09T04:59:53.651Z,0.00
2019-02-09T05:00:53.668Z,0.00
2019-02-09T05:02:47.175Z,0.00
2019-02-09T05:03:47.151Z,0.00
2019-02-09T05:05:40.609Z,0.00
2019-02-09T05:06:40.627Z,0.00
2019-02-09T05:08:34.079Z,0.00
2019-02-09T05:09:34.107Z,0.00
2019-02-09T05:11:27.565Z,0.00
2019-02-09T05:12:27.581Z,0.00
2019-02-09T05:14:21.017Z,0.00
2019-02-09T05:15:21.046Z,0.00
2019-02-09T05:17:14.508Z,0.00
2019-02-09T05:18:14.524Z,0.00
2019-02-09T05:20:08.000Z,0.00
2019-02-09T05:21:08.025Z,0.00
2019-02-09T05:23:01.484Z,0.00
2019-02-09T05:24:01.499Z,0.00
2019-02-09T05:25:54.944Z,0.00
2019-02-09T05:26:54.967Z,0.00
2019-02-09T05:28:48.414Z,0.00
2019-02-09T05:29:48.443Z,0.00
2019-02-09T05:31:41.887Z,0.00
2019-02-09T05:32:41.905Z,0.00
2019-02-09T05:34:35.353Z,0.00
2019-02-09T05:35:35.382Z,0.00
2019-02-09T05:37:28.838Z,0.00
2019-02-09T05:38:28.861Z,0.00
2019-02-09T05:40:22.312Z,0.00
2019-02-09T05:41:22.345Z,0.00
2019-02-09T05:43:15.766Z,0.00
2019-02-09T05:44:15.793Z,0.00
2019-02-09T05:46:09.265Z,0.00
2019-02-09T05:47:09.284Z,0.00
2019-02-09T05:49:02.745Z,0.00
2019-02-09T05:50:02.773Z,0.00
2019-02-09T05:51:56.236Z,0.00
2019-02-09T05:52:56.254Z,0.00
2019-02-09T05:54:49.703Z,0.00
2019-02-09T05:55:49.728Z,0.00
2019-02-09T05:57:43.175Z,0.00
2019-02-09T05:58:43.195Z,0.00
2019-02-09T06:00:36.644Z,0.00
2019-02-09T06:01:36.665Z,0.00
2019-02-09T06:03:30.113Z,0.00
2019-02-09T06:04:30.145Z,0.00
2019-02-09T06:06:23.607Z,0.00
2019-02-09T06:07:23.623Z,0.00
2019-02-09T06:09:17.084Z,0.00
2019-02-09T06:10:17.103Z,0.00
2019-02-09T06:12:10.535Z,0.00
2019-02-09T06:13:10.556Z,0.00
2019-02-09T06:15:03.997Z,0.00
2019-02-09T06:16:04.026Z,0.00
2019-02-09T06:17:57.473Z,0.00
2019-02-09T06:18:57.490Z,0.00
2019-02-09T06:20:50.947Z,0.00
2019-02-09T06:21:50.967Z,0.00
2019-02-09T06:23:44.403Z,0.00
2019-02-09T06:24:44.433Z,0.00
2019-02-09T06:26:37.882Z,0.00
2019-02-09T06:27:37.898Z,0.00
2019-02-09T06:29:31.345Z,0.00
2019-02-09T06:30:31.389Z,0.00
2019-02-09T06:32:24.829Z,0.00
2019-02-09T06:33:24.848Z,0.00
2019-02-09T06:35:18.317Z,0.00
2019-02-09T06:36:18.325Z,0.00
2019-02-09T06:38:11.776Z,0.00
2019-02-09T06:39:11.797Z,0.00
2019-02-09T06:41:05.256Z,0.00
2019-02-09T06:42:05.276Z,0.00
2019-02-09T06:43:58.716Z,0.00
2019-02-09T06:44:58.742Z,0.00
2019-02-09T06:46:52.203Z,0.00
2019-02-09T06:47:52.221Z,0.00
2019-02-09T06:49:45.661Z,0.00
2019-02-09T06:50:45.690Z,0.00
2019-02-09T06:52:39.142Z,0.00
2019-02-09T06:53:39.161Z,0.00
2019-02-09T06:55:32.598Z,0.00
2019-02-09T06:56:32.625Z,0.00
2019-02-09T06:58:26.084Z,0.00
2019-02-09T06:59:26.103Z,0.00
2019-02-09T07:01:19.561Z,0.00
2019-02-09T07:02:19.580Z,0.00
2019-02-09T07:04:13.029Z,0.00
2019-02-09T07:05:13.054Z,0.00
2019-02-09T07:07:06.509Z,0.00
2019-02-09T07:08:06.533Z,0.00
2019-02-09T07:09:59.996Z,0.00
2019-02-09T07:11:00.013Z,0.00
2019-02-09T07:12:53.476Z,0.00
2019-02-09T07:13:53.489Z,0.00
2019-02-09T07:15:46.939Z,0.00
2019-02-09T07:16:46.972Z,0.00
2019-02-09T07:18:40.418Z,0.00
2019-02-09T07:19:40.439Z,0.00
2019-02-09T07:21:33.885Z,4.00
2019-02-09T07:22:33.907Z,4.00
2019-02-09T07:24:27.348Z,0.00
2019-02-09T07:25:27.375Z,4.00
2019-02-09T07:27:20.842Z,4.00
2019-02-09T07:28:20.860Z,4.00
2019-02-09T07:30:14.300Z,4.00
2019-02-09T07:31:14.328Z,4.00
2019-02-09T07:33:07.775Z,4.00
2019-02-09T07:34:07.797Z,4.00
2019-02-09T07:36:01.241Z,8.00
2019-02-09T07:37:01.267Z,4.00
2019-02-09T07:38:54.732Z,4.00
2019-02-09T07:39:54.753Z,4.00
2019-02-09T07:41:48.208Z,4.00
2019-02-09T07:42:48.238Z,8.00
2019-02-09T07:44:41.732Z,4.00
2019-02-09T07:45:41.697Z,4.00
2019-02-09T07:47:35.145Z,4.00
2019-02-09T07:48:35.163Z,8.00
2019-02-09T07:50:28.605Z,4.00
2019-02-09T07:51:28.629Z,8.00
2019-02-09T07:53:21.588Z,4.00
2019-02-09T07:54:21.610Z,8.00
2019-02-09T07:56:15.063Z,8.00
2019-02-09T07:57:15.091Z,4.00
2019-02-09T07:59:08.544Z,8.00
2019-02-09T08:00:08.570Z,8.00
2019-02-09T08:02:04.538Z,8.00
2019-02-09T08:03:02.038Z,8.00
2019-02-09T08:04:55.479Z,12.00
2019-02-09T08:05:55.509Z,12.00
2019-02-09T08:07:48.978Z,8.00
2019-02-09T08:08:49.016Z,8.00
2019-02-09T08:10:42.436Z,8.00
2019-02-09T08:11:42.489Z,8.00
2019-02-09T08:13:35.921Z,4.00
2019-02-09T08:14:35.940Z,8.00
2019-02-09T08:16:28.886Z,8.00
2019-02-09T08:17:28.916Z,8.00
2019-02-09T08:19:21.887Z,8.00
2019-02-09T08:20:21.905Z,4.00
2019-02-09T08:22:14.866Z,8.00
2019-02-09T08:23:14.879Z,8.00
2019-02-09T08:25:08.350Z,8.00
2019-02-09T08:26:08.380Z,8.00
2019-02-09T08:28:01.332Z,8.00
2019-02-09T08:29:01.350Z,8.00
2019-02-09T08:30:54.297Z,8.00
2019-02-09T08:31:54.326Z,8.00
2019-02-09T08:33:47.776Z,8.00
2019-02-09T08:34:47.801Z,8.00
2019-02-09T08:36:40.744Z,12.00
2019-02-09T08:37:40.769Z,8.00
2019-02-09T08:39:33.724Z,8.00
2019-02-09T08:40:33.745Z,8.00
2019-02-09T08:42:26.694Z,12.00
2019-02-09T08:43:26.716Z,12.00
2019-02-09T08:45:19.662Z,20.00
2019-02-09T08:46:19.695Z,16.00
2019-02-09T08:48:12.647Z,12.00
2019-02-09T08:49:12.669Z,16.00
2019-02-09T08:51:06.104Z,16.00
2019-02-09T08:52:06.134Z,8.00
2019-02-09T08:53:59.087Z,20.00
2019-02-09T08:54:59.110Z,20.00
2019-02-09T08:56:52.052Z,16.00
2019-02-09T08:57:52.081Z,16.00
2019-02-09T08:59:45.050Z,16.00
2019-02-09T09:00:45.064Z,20.00
2019-02-09T09:02:38.020Z,24.00
2019-02-09T09:03:38.045Z,12.00
2019-02-09T09:05:30.986Z,12.00
2019-02-09T09:06:31.011Z,12.00
2019-02-09T09:08:24.475Z,12.00
2019-02-09T09:09:24.495Z,8.00
2019-02-09T09:11:17.441Z,16.00
2019-02-09T09:12:17.470Z,24.00
2019-02-09T09:14:10.425Z,36.00
2019-02-09T09:15:10.447Z,20.00
2019-02-09T09:17:03.387Z,8.00
2019-02-09T09:18:03.417Z,8.00
2019-02-09T09:19:56.371Z,12.00
2019-02-09T09:20:56.389Z,16.00
2019-02-09T09:22:49.844Z,28.00
2019-02-09T09:23:49.869Z,24.00
2019-02-09T09:25:43.304Z,28.00
2019-02-09T09:26:43.331Z,24.00
2019-02-09T09:28:36.288Z,20.00
2019-02-09T09:29:36.316Z,20.00
2019-02-09T09:31:29.255Z,24.00
2019-02-09T09:32:29.284Z,24.00
2019-02-09T09:34:22.241Z,32.00
2019-02-09T09:35:22.266Z,20.00
2019-02-09T09:37:15.210Z,20.00
2019-02-09T09:38:15.243Z,28.00
2019-02-09T09:40:08.207Z,24.00
2019-02-09T09:41:08.211Z,16.00
2019-02-09T09:43:01.171Z,16.00
2019-02-09T09:44:01.192Z,20.00
2019-02-09T09:45:54.139Z,20.00
2019-02-09T09:46:54.170Z,20.00
2019-02-09T09:48:47.119Z,24.00
2019-02-09T09:49:47.142Z,24.00
2019-02-09T09:51:40.084Z,16.00
2019-02-09T09:52:40.120Z,20.00
2019-02-09T09:54:33.079Z,24.00
2019-02-09T09:55:33.098Z,32.00
2019-02-09T09:57:26.042Z,24.00
2019-02-09T09:58:26.069Z,32.00
2019-02-09T10:00:19.023Z,36.00
2019-02-09T10:01:19.041Z,28.00
2019-02-09T10:03:12.487Z,28.00
2019-02-09T10:04:12.508Z,32.00
2019-02-09T10:06:06.738Z,28.00
2019-02-09T10:07:06.772Z,20.00
2019-02-09T10:09:00.173Z,16.00
2019-02-09T10:10:00.210Z,16.00
2019-02-09T10:11:53.633Z,12.00
2019-02-09T10:12:53.684Z,16.00
2019-02-09T10:14:46.686Z,24.00
2019-02-09T10:15:46.670Z,24.00
2019-02-09T10:17:39.624Z,24.00
2019-02-09T10:18:39.688Z,32.00
2019-02-09T10:20:32.715Z,28.00
2019-02-09T10:21:32.688Z,20.00
2019-02-09T10:23:26.030Z,20.00
2019-02-09T10:24:26.020Z,28.00
2019-02-09T10:26:20.557Z,20.00
2019-02-09T10:27:20.583Z,28.00
2019-02-09T10:29:14.030Z,20.00
2019-02-09T10:30:14.053Z,16.00
2019-02-09T10:32:07.500Z,28.00
2019-02-09T10:33:07.530Z,24.00
2019-02-09T10:35:00.986Z,24.00
2019-02-09T10:36:01.007Z,16.00
2019-02-09T10:37:54.454Z,20.00
2019-02-09T10:38:54.482Z,20.00
2019-02-09T10:40:47.435Z,40.00
2019-02-09T10:41:47.457Z,32.00
2019-02-09T10:43:40.907Z,32.00
2019-02-09T10:44:40.926Z,36.00
2019-02-09T10:46:34.377Z,20.00
2019-02-09T10:47:34.405Z,32.00
2019-02-09T10:49:27.376Z,36.00
2019-02-09T10:50:27.428Z,28.00
2019-02-09T10:52:20.848Z,44.00
2019-02-09T10:53:20.872Z,36.00
2019-02-09T10:55:13.828Z,28.00
2019-02-09T10:56:13.849Z,20.00
2019-02-09T10:58:06.796Z,20.00
2019-02-09T10:59:06.826Z,24.00
2019-02-09T11:00:59.776Z,20.00
2019-02-09T11:01:59.798Z,20.00
2019-02-09T11:03:52.752Z,16.00
2019-02-09T11:04:52.774Z,24.00
2019-02-09T11:06:46.238Z,24.00
2019-02-09T11:07:46.252Z,20.00
2019-02-09T11:09:39.700Z,28.00
2019-02-09T11:10:39.725Z,28.00
2019-02-09T11:12:32.665Z,28.00
2019-02-09T11:13:32.695Z,36.00
2019-02-09T11:15:25.650Z,44.00
2019-02-09T11:16:25.670Z,36.00
2019-02-09T11:18:18.621Z,44.00
2019-02-09T11:19:18.648Z,28.00
2019-02-09T11:21:12.102Z,16.00
2019-02-09T11:22:12.153Z,20.00
2019-02-09T11:24:05.167Z,20.00
2019-02-09T11:25:05.193Z,24.00
2019-02-09T11:26:58.136Z,12.00
2019-02-09T11:27:58.164Z,12.00
2019-02-09T11:29:51.130Z,8.00
2019-02-09T11:30:51.146Z,4.00
2019-02-09T11:32:44.596Z,8.00
2019-02-09T11:33:44.626Z,8.00
2019-02-09T11:35:38.103Z,4.00
2019-02-09T11:36:38.123Z,12.00
2019-02-09T11:38:31.070Z,16.00
2019-02-09T11:39:31.102Z,16.00
2019-02-09T11:41:24.051Z,20.00
2019-02-09T11:42:24.092Z,36.00
2019-02-09T11:44:17.730Z,36.00
2019-02-09T11:45:17.576Z,36.00
2019-02-09T11:47:10.797Z,24.00
2019-02-09T11:48:10.806Z,36.00
2019-02-09T11:50:04.281Z,44.00
2019-02-09T11:51:04.304Z,32.00
2019-02-09T11:52:57.828Z,36.00
2019-02-09T11:53:57.866Z,32.00
2019-02-09T11:55:51.364Z,36.00
2019-02-09T11:56:51.367Z,44.00
2019-02-09T11:58:44.826Z,32.00
2019-02-09T11:59:44.855Z,36.00
2019-02-09T12:01:38.306Z,36.00
2019-02-09T12:02:38.325Z,32.00
2019-02-09T12:04:31.765Z,28.00
2019-02-09T12:05:31.790Z,24.00
2019-02-09T12:07:24.810Z,24.00
2019-02-09T12:08:24.776Z,28.00
2019-02-09T12:10:19.282Z,32.00
2019-02-09T12:11:19.266Z,28.00
2019-02-09T12:13:12.765Z,40.00
2019-02-09T12:14:12.776Z,28.00
2019-02-09T12:16:05.720Z,36.00
2019-02-09T12:17:05.745Z,52.00
2019-02-09T12:18:59.609Z,56.00
2019-02-09T12:19:59.604Z,60.00
2019-02-09T12:21:53.125Z,52.00
2019-02-09T12:22:53.122Z,36.00
2019-02-09T12:24:47.560Z,36.00
2019-02-09T12:25:47.590Z,40.00
2019-02-09T12:27:40.589Z,44.00
2019-02-09T12:28:40.605Z,36.00
2019-02-09T12:30:33.527Z,52.00
2019-02-09T12:31:33.550Z,40.00
2019-02-09T12:33:26.990Z,48.00
2019-02-09T12:34:27.017Z,44.00
2019-02-09T12:36:19.983Z,36.00
2019-02-09T12:37:19.994Z,36.00
2019-02-09T12:39:12.943Z,40.00
2019-02-09T12:40:12.975Z,40.00
2019-02-09T12:42:05.928Z,52.00
2019-02-09T12:43:05.956Z,60.00
2019-02-09T12:44:58.920Z,76.00
2019-02-09T12:45:58.950Z,64.00
2019-02-09T12:47:51.907Z,36.00
2019-02-09T12:48:51.934Z,56.00
2019-02-09T12:50:44.909Z,72.00
2019-02-09T12:51:44.911Z,56.00
2019-02-09T12:53:37.858Z,48.00
2019-02-09T12:54:37.887Z,44.00
2019-02-09T12:56:30.889Z,52.00
2019-02-09T12:57:30.910Z,48.00
2019-02-09T12:59:23.871Z,20.00
2019-02-09T13:00:23.891Z,20.00
2019-02-09T13:02:16.844Z,20.00
2019-02-09T13:03:16.866Z,12.00
2019-02-09T13:05:10.454Z,12.00
2019-02-09T13:06:10.357Z,12.00
2019-02-09T13:08:03.302Z,16.00
2019-02-09T13:09:03.323Z,12.00
2019-02-09T13:10:56.277Z,16.00
2019-02-09T13:11:56.300Z,16.00
2019-02-09T13:13:49.249Z,40.00
2019-02-09T13:14:49.277Z,28.00
2019-02-09T13:16:42.295Z,16.00
2019-02-09T13:17:42.314Z,28.00
2019-02-09T13:19:35.295Z,20.00
2019-02-09T13:20:35.292Z,28.00
2019-02-09T13:22:28.251Z,20.00
2019-02-09T13:23:28.269Z,20.00
2019-02-09T13:25:21.210Z,16.00
2019-02-09T13:26:21.297Z,16.00
2019-02-09T13:28:14.213Z,8.00
2019-02-09T13:29:14.269Z,8.00
2019-02-09T13:31:08.721Z,16.00
2019-02-09T13:32:07.215Z,24.00
2019-02-09T13:34:00.164Z,24.00
2019-02-09T13:35:00.256Z,16.00
2019-02-09T13:36:53.155Z,28.00
2019-02-09T13:37:53.174Z,36.00
2019-02-09T13:39:46.614Z,56.00
2019-02-09T13:40:46.642Z,28.00
2019-02-09T13:42:39.595Z,20.00
2019-02-09T13:43:39.627Z,20.00
2019-02-09T13:45:33.078Z,36.00
2019-02-09T13:46:33.122Z,40.00
2019-02-09T13:48:26.058Z,44.00
2019-02-09T13:49:26.090Z,24.00
2019-02-09T13:51:19.028Z,12.00
2019-02-09T13:52:19.061Z,12.00
2019-02-09T13:54:12.013Z,8.00
2019-02-09T13:55:12.034Z,8.00
2019-02-09T13:57:04.991Z,4.00
2019-02-09T13:58:05.013Z,8.00
2019-02-09T13:59:57.965Z,16.00
2019-02-09T14:00:57.989Z,12.00
2019-02-09T14:02:51.436Z,8.00
2019-02-09T14:03:51.456Z,12.00
2019-02-09T14:05:44.408Z,8.00
2019-02-09T14:06:44.438Z,8.00
2019-02-09T14:08:37.393Z,20.00
2019-02-09T14:09:37.408Z,36.00
2019-02-09T14:11:30.853Z,24.00
2019-02-09T14:12:30.882Z,24.00
2019-02-09T14:14:23.837Z,44.00
2019-02-09T14:15:23.945Z,36.00
2019-02-09T14:17:17.315Z,20.00
2019-02-09T14:18:17.344Z,28.00
2019-02-09T14:20:10.293Z,24.00
2019-02-09T14:21:10.318Z,28.00
2019-02-09T14:23:03.765Z,20.00
2019-02-09T14:24:03.786Z,20.00
2019-02-09T14:25:56.731Z,12.00
2019-02-09T14:26:56.763Z,12.00
2019-02-09T14:28:49.718Z,16.00
2019-02-09T14:29:49.740Z,16.00
2019-02-09T14:31:42.691Z,24.00
2019-02-09T14:32:42.717Z,40.00
2019-02-09T14:34:36.166Z,24.00
2019-02-09T14:35:36.189Z,40.00
2019-02-09T14:37:29.145Z,28.00
2019-02-09T14:38:29.167Z,32.00
2019-02-09T14:40:22.113Z,16.00
2019-02-09T14:41:22.145Z,4.00
2019-02-09T14:43:15.102Z,4.00
2019-02-09T14:44:15.119Z,4.00
2019-02-09T14:46:08.067Z,4.00
2019-02-09T14:47:08.100Z,0.00
2019-02-09T14:49:01.558Z,0.00
2019-02-09T14:50:01.580Z,4.00
2019-02-09T14:51:54.528Z,4.00
2019-02-09T14:52:54.558Z,4.00
2019-02-09T14:54:48.100Z,0.00
2019-02-09T14:55:48.168Z,0.00
2019-02-09T14:57:41.063Z,4.00
2019-02-09T14:58:41.091Z,20.00
2019-02-09T15:00:34.055Z,36.00
2019-02-09T15:01:34.077Z,36.00
2019-02-09T15:03:30.626Z,32.00
2019-02-09T15:04:27.051Z,24.00
2019-02-09T15:06:19.999Z,24.00
2019-02-09T15:07:20.031Z,20.00
2019-02-09T15:09:12.994Z,24.00
2019-02-09T15:10:13.013Z,28.00
2019-02-09T15:12:05.966Z,24.00
2019-02-09T15:13:05.997Z,28.00
2019-02-09T15:15:00.155Z,20.00
2019-02-09T15:15:58.981Z,20.00
2019-02-09T15:17:51.920Z,20.00
2019-02-09T15:18:51.952Z,12.00
2019-02-09T15:20:44.907Z,12.00
2019-02-09T15:21:44.927Z,16.00
2019-02-09T15:23:37.882Z,12.00
2019-02-09T15:24:37.906Z,16.00
2019-02-09T15:26:30.865Z,12.00
2019-02-09T15:27:30.890Z,12.00
2019-02-09T15:29:23.846Z,8.00
2019-02-09T15:30:23.867Z,12.00
2019-02-09T15:32:16.817Z,16.00
2019-02-09T15:33:16.846Z,8.00
2019-02-09T15:35:09.797Z,12.00
2019-02-09T15:36:09.817Z,8.00
2019-02-09T15:38:02.763Z,8.00
2019-02-09T15:39:02.795Z,12.00
2019-02-09T15:40:55.790Z,8.00
2019-02-09T15:41:55.813Z,4.00
2019-02-09T15:43:48.775Z,8.00
2019-02-09T15:44:48.787Z,8.00
2019-02-09T15:46:41.743Z,8.00
2019-02-09T15:47:41.769Z,8.00
2019-02-09T15:49:34.721Z,4.00
2019-02-09T15:50:34.742Z,4.00
2019-02-09T15:52:27.691Z,0.00
2019-02-09T15:53:27.722Z,4.00
2019-02-09T15:55:20.678Z,4.00
2019-02-09T15:56:20.723Z,4.00
2019-02-09T15:58:13.644Z,4.00
2019-02-09T15:59:13.676Z,4.00
2019-02-09T16:01:06.749Z,4.00
2019-02-09T16:02:06.700Z,4.00
2019-02-09T16:03:59.717Z,0.00
2019-02-09T16:04:59.676Z,0.00
2019-02-09T16:06:52.632Z,0.00
2019-02-09T16:07:52.662Z,0.00
2019-02-09T16:09:45.612Z,0.00
2019-02-09T16:10:45.631Z,0.00
2019-02-09T16:12:38.581Z,0.00
2019-02-09T16:13:45.329Z,0.00
2019-02-09T16:15:31.569Z,0.00
2019-02-09T16:16:31.591Z,0.00
2019-02-09T16:18:24.538Z,0.00
2019-02-09T16:19:24.569Z,0.00
2019-02-09T16:21:18.022Z,0.00
2019-02-09T16:22:18.128Z,0.00
2019-02-09T16:24:11.534Z,0.00
2019-02-09T16:25:11.540Z,0.00
2019-02-09T16:27:04.517Z,0.00
2019-02-09T16:28:04.564Z,0.00
2019-02-09T16:29:58.049Z,0.00
2019-02-09T16:30:58.069Z,0.00
2019-02-09T16:32:51.630Z,0.00
2019-02-09T16:33:51.528Z,0.00
2019-02-09T16:35:44.481Z,0.00
2019-02-09T16:36:44.503Z,0.00
2019-02-09T16:38:37.444Z,0.00
2019-02-09T16:39:37.484Z,0.00
2019-02-09T16:41:30.433Z,0.00
2019-02-09T16:42:30.455Z,0.00
2019-02-09T16:44:23.400Z,0.00
2019-02-09T16:45:23.438Z,0.00
2019-02-09T16:47:16.887Z,0.00
2019-02-09T16:48:16.909Z,0.00
2019-02-09T16:50:09.863Z,0.00
2019-02-09T16:51:09.885Z,0.00
2019-02-09T16:53:02.895Z,0.00
2019-02-09T16:54:02.861Z,0.00
2019-02-09T16:55:56.320Z,0.00
2019-02-09T16:56:56.327Z,0.00
2019-02-09T16:58:49.779Z,0.00
2019-02-09T16:59:49.807Z,0.00
2019-02-09T17:01:43.456Z,0.00
2019-02-09T17:02:43.348Z,0.00
2019-02-09T17:04:36.726Z,0.00
2019-02-09T17:05:36.753Z,0.00
2019-02-09T17:07:29.717Z,0.00
2019-02-09T17:08:29.732Z,0.00
2019-02-09T17:10:22.689Z,0.00
2019-02-09T17:11:22.707Z,0.00
2019-02-09T17:13:16.141Z,0.00
2019-02-09T17:14:16.171Z,0.00
2019-02-09T17:16:09.132Z,0.00
2019-02-09T17:17:09.152Z,0.00
2019-02-09T17:19:02.095Z,0.00
2019-02-09T17:20:02.123Z,0.00
2019-02-09T17:21:55.593Z,0.00
2019-02-09T17:22:55.648Z,0.00
2019-02-09T17:24:48.596Z,0.00
2019-02-09T17:25:48.589Z,0.00
2019-02-09T17:27:42.059Z,0.00
2019-02-09T17:28:42.055Z,0.00
2019-02-09T17:30:35.049Z,0.00
2019-02-09T17:31:35.053Z,0.00
2019-02-09T17:33:28.499Z,0.00
2019-02-09T17:34:28.523Z,0.00
2019-02-09T17:36:21.482Z,0.00
2019-02-09T17:37:21.505Z,0.00
2019-02-09T17:39:14.943Z,0.00
2019-02-09T17:40:14.968Z,0.00
2019-02-09T17:42:07.938Z,0.00
2019-02-09T17:43:07.953Z,0.00
2019-02-09T17:45:01.394Z,0.00
2019-02-09T17:46:01.418Z,0.00
2019-02-09T17:47:54.373Z,0.00
2019-02-09T17:48:54.400Z,0.00
2019-02-09T17:50:47.387Z,0.00
2019-02-09T17:51:47.374Z,0.00
2019-02-09T17:53:40.821Z,0.00
2019-02-09T17:54:40.862Z,0.00
2019-02-09T17:56:33.853Z,0.00
2019-02-09T17:57:33.900Z,0.00
2019-02-09T17:59:26.842Z,0.00
2019-02-09T18:00:26.851Z,0.00
2019-02-09T18:02:19.808Z,0.00
2019-02-09T18:03:19.835Z,0.00
2019-02-09T18:05:12.779Z,0.00
2019-02-09T18:06:12.807Z,0.00
2019-02-09T18:08:05.793Z,0.00
2019-02-09T18:09:05.794Z,0.00
2019-02-09T18:10:58.775Z,0.00
2019-02-09T18:11:58.756Z,0.00
2019-02-09T18:13:51.710Z,0.00
2019-02-09T18:14:51.743Z,0.00
2019-02-09T18:16:44.693Z,0.00
2019-02-09T18:17:44.710Z,0.00
2019-02-09T18:19:37.658Z,0.00
2019-02-09T18:20:37.695Z,0.00
2019-02-09T18:22:30.651Z,0.00
2019-02-09T18:23:30.669Z,0.00
2019-02-09T18:25:23.636Z,0.00
2019-02-09T18:26:23.650Z,0.00
2019-02-09T18:28:16.608Z,0.00
2019-02-09T18:29:16.629Z,0.00
2019-02-09T18:31:09.568Z,0.00
2019-02-09T18:32:09.602Z,0.00
2019-02-09T18:34:02.562Z,0.00
2019-02-09T18:35:02.580Z,0.00
2019-02-09T18:36:55.531Z,0.00
2019-02-09T18:37:55.557Z,0.00
2019-02-09T18:39:48.496Z,0.00
2019-02-09T18:40:48.528Z,0.00
2019-02-09T18:42:41.486Z,0.00
2019-02-09T18:43:41.506Z,0.00
2019-02-09T18:45:34.461Z,0.00
2019-02-09T18:46:34.494Z,0.00
2019-02-09T18:48:27.936Z,0.00
2019-02-09T18:49:27.971Z,0.00
2019-02-09T18:51:20.932Z,0.00
2019-02-09T18:52:20.965Z,0.00
2019-02-09T18:54:13.921Z,0.00
2019-02-09T18:55:13.944Z,0.00
2019-02-09T18:57:06.894Z,0.00
2019-02-09T18:58:06.916Z,0.00
2019-02-09T18:59:59.870Z,0.00